Terminal Aerodrome Forecast
Issued by NWS Lake Charles, LA

Home | Current Version | Previous Version | Text Only | Print | Product List | Glossary On
Versions: 1 2 3 4 5 6 7 8 9 10 11 12 13 14 15 16
000
FTUS44 KLCH 211724
TAFBPT
TAF
KBPT 211724Z 2118/2218 18008KT P6SM VCTS SCT035CB
      TEMPO 2118/2122 18010G25KT -TSRA OVC030CB
     FM220100 VRB04KT P6SM SCT250=

USA.gov is the U.S. government's official web portal to all federal, state and local government web resources and services.